Time;durP1;ratioP1;P1;durP2;ratioP2;P2;SDS_P1;SDS_P2;PMS_P1;PMS_P2;Temp;Humidity;BMP_temperature;BMP_pressure;BME280_temperature;BME280_humidity;BME280_pressure;Samples;Min_cycle;Max_cycle;Signal;HPM_P1;HPM_P2
2022/02/18 00:01:22;;;;;;;2.40;0.90;;;;;;;5.00;80.49;98636.17;89290;1281;94896;-69
2022/02/18 00:03:31;;;;;;;2.70;1.10;;;;;;;4.99;80.35;98639.91;89291;1280;80227;-56
2022/02/18 00:05:37;;;;;;;2.50;0.90;;;;;;;4.99;80.21;98648.45;89346;1279;82479;-56
2022/02/18 00:07:43;;;;;;;1.60;0.80;;;;;;;5.03;80.36;98651.68;89387;1279;99667;-56
2022/02/18 00:09:49;;;;;;;5.00;1.20;;;;;;;5.00;80.33;98651.91;89394;1278;89485;-56
2022/02/18 00:11:55;;;;;;;2.90;1.40;;;;;;;5.00;80.07;98662.48;89380;1279;95956;-57
2022/02/18 00:14:01;;;;;;;2.80;1.20;;;;;;;4.95;80.37;98664.01;89407;1279;77638;-69
2022/02/18 00:16:07;;;;;;;4.90;1.30;;;;;;;4.88;80.23;98668.42;89428;1278;81162;-71
2022/02/18 00:18:12;;;;;;;2.00;1.00;;;;;;;4.85;80.20;98671.19;89397;1279;97173;-70
2022/02/18 00:20:21;;;;;;;3.60;0.80;;;;;;;4.84;80.07;98677.15;89392;1278;88153;-70
2022/02/18 00:22:30;;;;;;;4.10;1.00;;;;;;;4.82;80.20;98681.70;89370;1279;93746;-71
2022/02/18 00:24:36;;;;;;;2.80;1.20;;;;;;;4.78;80.21;98683.84;89419;1279;79683;-70
2022/02/18 00:26:46;;;;;;;2.60;0.90;;;;;;;4.76;79.90;98683.52;89403;1279;82278;-72
2022/02/18 00:28:54;;;;;;;3.20;1.00;;;;;;;4.83;79.91;98690.40;89411;1279;99892;-56
2022/02/18 00:31:06;;;;;;;2.50;0.80;;;;;;;4.83;80.07;98695.37;89432;1279;87451;-56
2022/02/18 00:33:14;;;;;;;4.30;1.00;;;;;;;4.87;79.91;98699.13;89408;1279;95991;-73
2022/02/18 00:35:21;;;;;;;2.80;0.90;;;;;;;4.84;79.74;98704.11;89393;1278;78513;-70
2022/02/18 00:37:28;;;;;;;2.10;0.90;;;;;;;4.84;79.97;98698.42;89445;1279;80636;-72
2022/02/18 00:39:37;;;;;;;2.30;1.00;;;;;;;4.84;79.82;98700.16;89184;1281;98404;-71
2022/02/18 00:41:44;;;;;;;3.50;1.00;;;;;;;4.85;79.53;98701.31;89422;1279;89093;-71
2022/02/18 00:43:58;;;;;;;4.20;1.10;;;;;;;4.81;79.51;98709.80;89420;1279;94195;-70
2022/02/18 00:46:04;;;;;;;2.30;1.10;;;;;;;4.79;79.43;98712.25;89412;1279;79425;-72
2022/02/18 00:48:11;;;;;;;3.60;0.80;;;;;;;4.77;79.46;98716.98;89440;1279;81169;-56
2022/02/18 00:50:21;;;;;;;2.90;0.90;;;;;;;4.78;79.39;98713.43;89406;1279;100340;-55
2022/02/18 00:52:27;;;;;;;2.30;1.00;;;;;;;4.80;79.12;98720.73;89416;1278;89551;-55
2022/02/18 00:54:35;;;;;;;2.80;0.90;;;;;;;4.84;79.31;98721.56;89432;1279;94968;-55
2022/02/18 00:56:44;;;;;;;2.70;1.00;;;;;;;4.89;79.18;98724.73;89393;1279;79382;-55
2022/02/18 00:58:49;;;;;;;2.00;0.70;;;;;;;4.95;79.16;98727.16;89412;1279;82815;-71
2022/02/18 01:00:55;;;;;;;3.20;0.80;;;;;;;4.98;79.16;98728.02;89424;1279;97975;-69
2022/02/18 01:03:04;;;;;;;2.90;1.00;;;;;;;5.00;79.01;98730.44;89300;1281;87549;-69
2022/02/18 01:05:13;;;;;;;2.80;1.30;;;;;;;4.99;79.06;98726.12;89400;1278;92799;-70
2022/02/18 01:07:18;;;;;;;3.60;0.90;;;;;;;4.99;79.13;98729.70;89320;1281;78749;-70
2022/02/18 01:09:27;;;;;;;2.30;0.80;;;;;;;4.96;79.22;98738.80;89427;1279;81931;-55
2022/02/18 01:11:34;;;;;;;2.70;1.00;;;;;;;4.92;79.03;98740.35;89261;1281;99605;-55
2022/02/18 01:13:40;;;;;;;3.90;1.20;;;;;;;4.88;79.01;98736.98;89286;1280;87846;-55
2022/02/18 01:15:49;;;;;;;3.50;0.90;;;;;;;4.85;79.05;98736.34;89304;1280;94252;-55
2022/02/18 01:17:55;;;;;;;3.10;0.80;;;;;;;4.84;78.98;98738.77;89266;1281;79211;-56
2022/02/18 01:20:01;;;;;;;1.70;0.70;;;;;;;4.82;79.09;98737.19;89408;1279;80701;-56
2022/02/18 01:22:10;;;;;;;4.80;1.20;;;;;;;4.85;79.35;98739.84;89405;1279;99841;-56
2022/02/18 01:24:18;;;;;;;3.60;1.00;;;;;;;4.89;79.24;98739.83;89299;1281;88107;-56
2022/02/18 01:26:24;;;;;;;4.30;1.10;;;;;;;4.95;79.40;98751.77;89280;1281;94739;-56
2022/02/18 01:28:33;;;;;;;4.60;1.10;;;;;;;4.99;79.25;98753.04;89280;1280;78951;-70
2022/02/18 01:30:38;;;;;;;4.50;1.20;;;;;;;4.96;79.27;98751.25;89291;1281;83002;-70
2022/02/18 01:32:48;;;;;;;6.00;1.60;;;;;;;4.95;79.28;98753.14;89422;1279;100109;-67
2022/02/18 01:34:53;;;;;;;5.70;1.40;;;;;;;4.87;79.50;98752.32;89303;1280;88180;-56
2022/02/18 01:36:59;;;;;;;3.90;1.20;;;;;;;4.80;79.36;98756.70;89302;1279;95945;-56
2022/02/18 01:39:04;;;;;;;6.30;1.40;;;;;;;4.79;79.25;98758.80;89283;1281;79142;-69
2022/02/18 01:41:13;;;;;;;4.40;1.00;;;;;;;4.74;79.41;98760.32;89291;1280;81449;-69
2022/02/18 01:43:19;;;;;;;3.60;1.00;;;;;;;4.75;79.26;98763.34;89312;1280;100310;-70
2022/02/18 01:45:25;;;;;;;4.40;1.10;;;;;;;4.74;79.38;98758.59;89280;1281;87929;-70
2022/02/18 01:47:31;;;;;;;5.10;1.00;;;;;;;4.76;79.26;98760.92;89266;1280;95411;-70
2022/02/18 01:49:40;;;;;;;4.60;1.10;;;;;;;4.81;79.42;98762.89;89335;1279;78964;-70
2022/02/18 01:51:45;;;;;;;6.80;2.00;;;;;;;4.82;79.19;98761.95;89431;1279;82151;-70
2022/02/18 01:53:55;;;;;;;6.80;1.30;;;;;;;4.81;79.42;98769.85;89426;1279;99216;-56
2022/02/18 01:56:05;;;;;;;5.00;1.20;;;;;;;4.83;79.23;98772.25;89437;1278;88224;-56
2022/02/18 01:58:10;;;;;;;4.80;1.50;;;;;;;4.83;79.16;98770.56;89282;1280;95662;-56
2022/02/18 02:00:23;;;;;;;3.40;1.30;;;;;;;4.80;79.00;98772.02;89274;1280;77910;-56
2022/02/18 02:02:29;;;;;;;6.30;1.50;;;;;;;4.76;79.04;98770.60;89280;1280;83067;-56
2022/02/18 02:04:37;;;;;;;6.00;1.40;;;;;;;4.74;79.07;98769.91;89404;1279;100276;-56
2022/02/18 02:06:43;;;;;;;8.20;1.50;;;;;;;4.71;78.75;98771.49;89411;1279;88134;-56
2022/02/18 02:08:49;;;;;;;7.70;1.50;;;;;;;4.71;79.04;98770.95;89405;1279;95218;-56
2022/02/18 02:10:55;;;;;;;3.50;1.20;;;;;;;4.74;78.97;98770.69;89292;1281;80930;-56
2022/02/18 02:13:00;;;;;;;6.40;1.10;;;;;;;4.74;78.93;98769.18;89305;1281;81836;-69
2022/02/18 02:15:10;;;;;;;8.10;1.30;;;;;;;4.79;79.00;98772.05;89407;1279;98628;-69
2022/02/18 02:17:18;;;;;;;4.60;1.30;;;;;;;4.79;79.15;98771.13;89317;1279;87506;-69
2022/02/18 02:19:24;;;;;;;5.60;1.70;;;;;;;4.82;78.92;98769.27;89421;1278;94846;-56
2022/02/18 02:21:32;;;;;;;4.60;1.30;;;;;;;4.82;78.72;98765.87;89306;1279;77240;-56
2022/02/18 02:23:38;;;;;;;7.70;1.80;;;;;;;4.83;78.66;98773.53;89436;1279;80544;-69
2022/02/18 02:25:46;;;;;;;6.90;1.60;;;;;;;4.81;78.79;98782.32;89443;1279;97717;-70
2022/02/18 02:27:55;;;;;;;6.80;1.90;;;;;;;4.75;78.67;98784.20;89416;1279;89077;-69
2022/02/18 02:30:10;;;;;;;4.80;1.40;;;;;;;4.71;78.75;98785.27;89416;1279;93310;-70
2022/02/18 02:32:16;;;;;;;5.40;1.40;;;;;;;4.68;78.59;98785.33;89423;1279;79031;-70
2022/02/18 02:34:22;;;;;;;4.30;1.50;;;;;;;4.68;78.67;98799.55;89418;1278;82635;-56
2022/02/18 02:36:31;;;;;;;8.30;1.80;;;;;;;4.67;78.72;98804.40;89414;1279;99851;-56
2022/02/18 02:38:37;;;;;;;5.00;1.10;;;;;;;4.66;78.83;98807.13;89290;1281;86482;-56
2022/02/18 02:40:47;;;;;;;6.70;1.50;;;;;;;4.67;78.95;98812.68;89294;1280;94105;-57
2022/02/18 02:42:54;;;;;;;6.50;1.50;;;;;;;4.68;79.13;98812.27;89285;1280;80058;-56
2022/02/18 02:45:06;;;;;;;4.20;1.30;;;;;;;4.72;79.36;98817.29;89286;1281;81848;-56
2022/02/18 02:47:14;;;;;;;4.30;1.30;;;;;;;4.75;79.49;98820.86;89302;1280;99687;-56
2022/02/18 02:49:26;;;;;;;6.70;1.60;;;;;;;4.78;79.32;98822.13;89430;1279;87937;-68
2022/02/18 02:51:39;;;;;;;6.20;1.60;;;;;;;4.76;79.73;98823.85;89410;1279;93684;-57
2022/02/18 02:53:56;;;;;;;7.40;1.60;;;;;;;4.72;79.51;98831.04;89161;1281;77240;-68
2022/02/18 02:56:01;;;;;;;7.90;1.50;;;;;;;4.63;79.75;98835.17;89324;1281;81089;-68
2022/02/18 02:58:11;;;;;;;6.80;1.50;;;;;;;4.50;79.96;98834.79;89392;1279;99221;-67
2022/02/18 03:00:23;;;;;;;5.60;1.70;;;;;;;4.42;79.83;98840.13;89419;1279;87924;-68
2022/02/18 03:02:33;;;;;;;5.40;1.50;;;;;;;4.42;79.89;98851.13;89332;1279;95932;-69
2022/02/18 03:04:41;;;;;;;4.60;1.20;;;;;;;4.42;79.93;98845.98;89447;1277;80561;-66
2022/02/18 03:06:50;;;;;;;10.20;2.60;;;;;;;4.44;80.13;98855.34;89444;1278;81844;-57
2022/02/18 03:09:09;;;;;;;5.40;1.30;;;;;;;4.45;80.12;98852.88;89449;1279;99264;-68
2022/02/18 03:11:16;;;;;;;9.20;1.40;;;;;;;4.47;80.32;98853.35;89392;1279;88310;-68
2022/02/18 03:13:26;;;;;;;4.60;1.20;;;;;;;4.48;80.29;98853.40;89270;1281;93794;-69
2022/02/18 03:15:36;;;;;;;6.90;1.50;;;;;;;4.50;80.22;98861.94;89408;1279;78785;-67
2022/02/18 03:17:47;;;;;;;5.70;1.20;;;;;;;4.53;80.36;98857.50;89376;1279;80925;-68
2022/02/18 03:19:55;;;;;;;6.40;1.70;;;;;;;4.50;80.19;98858.23;89363;1279;98921;-69
2022/02/18 03:22:04;;;;;;;4.20;1.30;;;;;;;4.47;80.45;98864.22;89345;1279;88437;-68
2022/02/18 03:24:10;;;;;;;5.20;1.50;;;;;;;4.40;80.42;98861.21;89198;1281;94565;-67
2022/02/18 03:26:19;;;;;;;4.30;1.30;;;;;;;4.36;80.66;98861.65;89340;1279;78955;-67
2022/02/18 03:28:28;;;;;;;4.70;1.20;;;;;;;4.35;80.48;98862.42;89351;1279;80141;-68
2022/02/18 03:30:34;;;;;;;6.20;1.30;;;;;;;4.39;80.50;98858.11;89342;1279;99497;-57
2022/02/18 03:32:43;;;;;;;6.20;1.40;;;;;;;4.45;80.68;98862.08;89387;1279;88335;-57
2022/02/18 03:34:49;;;;;;;8.50;1.80;;;;;;;4.48;80.61;98863.40;89338;1279;95637;-57
2022/02/18 03:36:57;;;;;;;11.00;1.80;;;;;;;4.52;80.52;98864.76;86996;1279;3104524;-57
2022/02/18 03:39:03;;;;;;;8.30;1.60;;;;;;;4.51;80.53;98864.63;89361;1279;81244;-57
2022/02/18 03:41:09;;;;;;;6.50;1.40;;;;;;;4.52;80.62;98861.15;89358;1279;98923;-57
2022/02/18 03:43:15;;;;;;;7.70;1.60;;;;;;;4.51;80.65;98869.16;89356;1279;89388;-57
2022/02/18 03:45:21;;;;;;;6.80;1.50;;;;;;;4.50;80.40;98874.91;89225;1280;95908;-70
2022/02/18 03:47:26;;;;;;;8.40;1.60;;;;;;;4.49;80.44;98873.13;89190;1281;81240;-71
2022/02/18 03:49:33;;;;;;;6.50;1.30;;;;;;;4.46;80.31;98880.24;89265;1279;80785;-71
2022/02/18 03:51:41;;;;;;;5.40;1.10;;;;;;;4.44;80.44;98886.06;89347;1279;100241;-71
2022/02/18 03:53:49;;;;;;;7.10;1.40;;;;;;;4.45;80.41;98890.39;89303;1279;89014;-57
2022/02/18 03:55:59;;;;;;;6.40;1.60;;;;;;;4.49;80.37;98896.15;89340;1279;93455;-58
2022/02/18 03:58:07;;;;;;;7.10;1.80;;;;;;;4.49;80.51;98895.55;89242;1278;78413;-57
2022/02/18 04:00:16;;;;;;;6.40;1.60;;;;;;;4.52;80.44;98899.35;89281;1281;83879;-72
2022/02/18 04:02:22;;;;;;;10.60;1.70;;;;;;;4.51;80.36;98904.16;89171;1281;97361;-72
2022/02/18 04:04:28;;;;;;;7.70;1.90;;;;;;;4.45;80.25;98901.13;89161;1281;89357;-71
2022/02/18 04:06:33;;;;;;;5.90;2.20;;;;;;;4.38;80.12;98905.28;89152;1281;95440;-71
2022/02/18 04:08:39;;;;;;;7.40;2.10;;;;;;;4.35;79.99;98919.06;89169;1281;77930;-70
2022/02/18 04:10:45;;;;;;;5.90;1.50;;;;;;;4.34;79.97;98927.11;89182;1281;83194;-72
2022/02/18 04:12:53;;;;;;;7.60;1.60;;;;;;;4.35;79.78;98934.60;89172;1281;96637;-70
2022/02/18 04:14:59;;;;;;;8.40;1.90;;;;;;;4.36;79.76;98946.41;89190;1281;88155;-56
2022/02/18 04:17:07;;;;;;;4.10;1.00;;;;;;;4.37;79.79;98945.70;89144;1281;93700;-56
2022/02/18 04:19:15;;;;;;;4.50;1.40;;;;;;;4.38;79.69;98958.58;89161;1281;80976;-56
2022/02/18 04:21:24;;;;;;;6.90;1.20;;;;;;;4.40;79.91;98958.05;89134;1281;82443;-56
2022/02/18 04:23:33;;;;;;;6.40;1.60;;;;;;;4.43;79.73;98961.15;89165;1280;100360;-66
2022/02/18 04:25:39;;;;;;;5.70;1.30;;;;;;;4.45;79.72;98971.50;89166;1281;88241;-56
2022/02/18 04:27:52;;;;;;;6.80;2.00;;;;;;;4.48;79.65;98974.91;89161;1281;94448;-56
2022/02/18 04:29:58;;;;;;;4.70;1.30;;;;;;;4.48;79.44;98983.72;89173;1281;78160;-72
2022/02/18 04:32:05;;;;;;;8.90;1.40;;;;;;;4.47;79.32;98980.50;89173;1281;80323;-71
2022/02/18 04:34:11;;;;;;;5.90;1.60;;;;;;;4.44;79.36;98989.92;89198;1281;100312;-72
2022/02/18 04:36:19;;;;;;;5.30;1.30;;;;;;;4.40;79.04;98993.30;89180;1281;87619;-71
2022/02/18 04:38:29;;;;;;;9.10;1.40;;;;;;;4.37;79.03;98989.90;89153;1281;95733;-71
2022/02/18 04:40:35;;;;;;;4.30;1.10;;;;;;;4.34;78.99;98996.15;89145;1281;79474;-56
2022/02/18 04:42:40;;;;;;;7.20;1.70;;;;;;;4.36;79.00;99002.36;89172;1281;81773;-56
2022/02/18 04:44:46;;;;;;;4.80;1.40;;;;;;;4.35;79.05;99009.27;89104;1281;98871;-69
2022/02/18 04:46:52;;;;;;;7.00;1.30;;;;;;;4.36;78.98;99011.06;89117;1282;87504;-70
2022/02/18 04:49:00;;;;;;;9.30;1.50;;;;;;;4.42;78.88;99010.73;89165;1281;94994;-56
2022/02/18 04:51:06;;;;;;;4.80;1.30;;;;;;;4.45;78.86;99015.65;89091;1281;79184;-56
2022/02/18 04:53:11;;;;;;;8.60;1.80;;;;;;;4.46;78.65;99014.17;89148;1281;80023;-56
2022/02/18 04:55:17;;;;;;;8.60;2.20;;;;;;;4.46;78.42;99026.02;89183;1281;99734;-56
2022/02/18 04:57:23;;;;;;;7.10;1.50;;;;;;;4.44;78.35;99035.61;89166;1281;88891;-56
2022/02/18 04:59:31;;;;;;;7.90;1.70;;;;;;;4.43;78.01;99040.36;89150;1281;96160;-56
2022/02/18 05:01:37;;;;;;;7.00;1.50;;;;;;;4.40;78.03;99048.31;89174;1280;78871;-56
2022/02/18 05:03:45;;;;;;;10.30;2.30;;;;;;;4.38;78.18;99049.11;89194;1281;80372;-62
2022/02/18 05:05:51;;;;;;;8.40;1.80;;;;;;;4.36;78.19;99046.06;89147;1281;98619;-56
2022/02/18 05:07:59;;;;;;;7.50;1.70;;;;;;;4.38;77.82;99058.05;89145;1281;88525;-56
2022/02/18 05:10:08;;;;;;;6.20;1.80;;;;;;;4.38;77.98;99062.71;89162;1281;95890;-70
2022/02/18 05:12:17;;;;;;;6.50;1.80;;;;;;;4.36;77.91;99066.64;89149;1281;78974;-71
2022/02/18 05:14:25;;;;;;;6.00;1.40;;;;;;;4.38;78.04;99070.73;89058;1282;82320;-57
2022/02/18 05:16:31;;;;;;;5.10;1.70;;;;;;;4.43;77.99;99072.23;89157;1281;99632;-56
2022/02/18 05:18:38;;;;;;;7.70;1.60;;;;;;;4.43;77.84;99078.42;89186;1280;87570;-57
2022/02/18 05:20:47;;;;;;;6.20;1.60;;;;;;;4.50;77.78;99080.48;89155;1281;93904;-57
2022/02/18 05:22:53;;;;;;;7.20;1.50;;;;;;;4.52;77.60;99082.15;89146;1281;77788;-56
2022/02/18 05:25:00;;;;;;;4.90;1.00;;;;;;;4.52;77.39;99083.66;89189;1280;81702;-70
2022/02/18 05:27:11;;;;;;;8.40;2.10;;;;;;;4.52;77.30;99091.14;89154;1281;99160;-69
2022/02/18 05:29:18;;;;;;;7.70;1.70;;;;;;;4.51;77.19;99085.67;89185;1281;87553;-70
2022/02/18 05:31:26;;;;;;;9.50;2.00;;;;;;;4.47;77.21;99095.27;89179;1281;95688;-71
2022/02/18 05:33:33;;;;;;;8.60;1.70;;;;;;;4.44;77.37;99100.52;89184;1281;76529;-57
2022/02/18 05:35:39;;;;;;;7.40;1.30;;;;;;;4.45;77.06;99100.30;89170;1280;80209;-56
2022/02/18 05:37:49;;;;;;;9.40;1.80;;;;;;;4.47;77.02;99106.33;89158;1281;98560;-56
2022/02/18 05:39:58;;;;;;;4.80;1.20;;;;;;;4.45;77.02;99105.19;89188;1281;90313;-57
2022/02/18 05:42:05;;;;;;;5.50;1.30;;;;;;;4.46;77.00;99108.49;89139;1280;96238;-56
2022/02/18 05:44:14;;;;;;;6.40;1.40;;;;;;;4.46;76.99;99110.18;89155;1281;79145;-70
2022/02/18 05:46:25;;;;;;;5.60;1.50;;;;;;;4.49;77.12;99113.97;89185;1280;81305;-70
2022/02/18 05:48:34;;;;;;;5.80;1.40;;;;;;;4.51;77.01;99115.52;89167;1280;97668;-71
2022/02/18 05:50:39;;;;;;;6.40;1.70;;;;;;;4.48;77.06;99120.82;89402;1279;89071;-72
2022/02/18 05:52:45;;;;;;;7.40;1.50;;;;;;;4.49;77.03;99124.66;89435;1279;92759;-69
2022/02/18 05:54:51;;;;;;;9.20;1.40;;;;;;;4.47;77.00;99126.69;89444;1279;77754;-71
2022/02/18 05:56:57;;;;;;;7.00;1.40;;;;;;;4.47;76.76;99121.34;89427;1279;80048;-69
2022/02/18 05:59:02;;;;;;;4.20;1.50;;;;;;;4.47;76.66;99130.02;89372;1279;99229;-70
2022/02/18 06:01:08;;;;;;;8.20;2.00;;;;;;;4.42;76.71;99138.29;89367;1279;88642;-71
2022/02/18 06:03:13;;;;;;;7.50;2.90;;;;;;;4.44;76.68;99146.40;89428;1279;94238;-56
2022/02/18 06:05:22;;;;;;;7.70;3.40;;;;;;;4.42;76.56;99154.08;89341;1279;78606;-63
2022/02/18 06:07:28;;;;;;;6.70;3.00;;;;;;;4.43;76.82;99154.08;89448;1279;82488;-56
2022/02/18 06:09:34;;;;;;;8.20;1.80;;;;;;;4.44;76.81;99160.16;89427;1279;99342;-56
2022/02/18 06:11:43;;;;;;;6.10;1.70;;;;;;;4.45;76.80;99160.98;89420;1279;87944;-58
2022/02/18 06:13:51;;;;;;;6.60;1.70;;;;;;;4.47;76.75;99160.95;89358;1280;94938;-70
2022/02/18 06:15:57;;;;;;;6.70;1.50;;;;;;;4.53;76.83;99166.01;89432;1279;77735;-70
2022/02/18 06:18:03;;;;;;;5.40;1.60;;;;;;;4.58;76.88;99165.30;89349;1279;81930;-56
2022/02/18 06:20:11;;;;;;;6.80;1.50;;;;;;;4.60;76.65;99160.35;89451;1279;96643;-58
2022/02/18 06:22:18;;;;;;;9.70;2.40;;;;;;;4.58;76.26;99174.71;89452;1279;87326;-56
2022/02/18 06:24:24;;;;;;;6.90;2.00;;;;;;;4.57;76.27;99179.31;89432;1279;94297;-56
2022/02/18 06:26:29;;;;;;;7.60;2.00;;;;;;;4.57;76.24;99186.42;89403;1279;78757;-56
2022/02/18 06:28:36;;;;;;;9.50;1.90;;;;;;;4.54;76.39;99189.75;89407;1279;82288;-71
2022/02/18 06:30:42;;;;;;;8.60;2.30;;;;;;;4.56;76.38;99191.80;89411;1279;98915;-70
2022/02/18 06:32:48;;;;;;;7.50;1.90;;;;;;;4.57;76.32;99190.50;89420;1279;88451;-58
2022/02/18 06:34:54;;;;;;;10.50;1.70;;;;;;;4.55;76.34;99189.92;89362;1279;94222;-57
2022/02/18 06:36:59;;;;;;;8.10;1.70;;;;;;;4.56;76.29;99191.30;89361;1280;79472;-57
2022/02/18 06:39:17;;;;;;;5.40;1.60;;;;;;;4.56;76.11;99195.23;89469;1279;80491;-57
2022/02/18 06:41:26;;;;;;;5.10;1.30;;;;;;;4.61;76.22;99198.09;89420;1279;98366;-58
2022/02/18 06:43:34;;;;;;;6.70;1.50;;;;;;;4.69;76.16;99203.91;89423;1279;88821;-58
2022/02/18 06:45:40;;;;;;;6.20;1.80;;;;;;;4.77;76.19;99202.38;89422;1279;95061;-57
2022/02/18 06:47:49;;;;;;;7.80;2.20;;;;;;;4.83;76.08;99207.09;89414;1279;80271;-57
2022/02/18 06:49:54;;;;;;;9.90;2.00;;;;;;;4.86;76.08;99214.56;89378;1280;81613;-57
2022/02/18 06:52:00;;;;;;;8.90;1.70;;;;;;;4.84;75.91;99219.20;89423;1280;99570;-57
2022/02/18 06:54:09;;;;;;;10.90;2.20;;;;;;;4.85;75.78;99224.62;89335;1281;89568;-57
2022/02/18 06:56:18;;;;;;;9.80;1.70;;;;;;;4.84;75.74;99227.95;89406;1280;92476;-58
2022/02/18 06:58:23;;;;;;;7.00;1.50;;;;;;;4.85;75.81;99234.29;89347;1281;76952;-70
2022/02/18 07:00:29;;;;;;;10.80;1.80;;;;;;;4.85;75.72;99238.34;89427;1279;80918;-69
2022/02/18 07:02:38;;;;;;;9.90;2.10;;;;;;;4.87;75.58;99236.17;89449;1280;97678;-57
2022/02/18 07:04:44;;;;;;;9.60;2.00;;;;;;;4.87;75.61;99240.42;89424;1280;88982;-57
2022/02/18 07:06:53;;;;;;;8.30;1.80;;;;;;;4.86;75.44;99245.23;89342;1279;94874;-57
2022/02/18 07:09:04;;;;;;;4.40;1.40;;;;;;;4.85;75.44;99244.42;89435;1280;79455;-71
2022/02/18 07:11:14;;;;;;;8.40;2.10;;;;;;;4.84;75.45;99245.59;89466;1279;80550;-71
2022/02/18 07:13:21;;;;;;;8.70;1.90;;;;;;;4.90;75.51;99244.00;89397;1281;98638;-70
2022/02/18 07:15:30;;;;;;;8.10;1.70;;;;;;;4.95;75.27;99241.78;89421;1281;86982;-70
2022/02/18 07:17:40;;;;;;;7.80;1.60;;;;;;;4.99;75.34;99248.05;89359;1281;94554;-70
2022/02/18 07:19:49;;;;;;;6.80;1.70;;;;;;;5.08;75.26;99244.67;89402;1280;80955;-71
2022/02/18 07:22:03;;;;;;;8.60;1.80;;;;;;;5.15;75.22;99249.73;89431;1279;81518;-68
2022/02/18 07:24:16;;;;;;;10.50;1.90;;;;;;;5.18;75.16;99246.55;89428;1279;99315;-57
2022/02/18 07:26:26;;;;;;;8.60;1.90;;;;;;;5.18;74.95;99248.48;89352;1280;86654;-58
2022/02/18 07:28:36;;;;;;;10.80;2.20;;;;;;;5.19;75.11;99252.05;89407;1279;94013;-57
2022/02/18 07:30:43;;;;;;;6.70;1.80;;;;;;;5.21;74.97;99256.98;89430;1279;77871;-57
2022/02/18 07:32:53;;;;;;;5.40;1.50;;;;;;;5.22;74.70;99257.44;89432;1279;81287;-70
2022/02/18 07:34:59;;;;;;;9.70;2.50;;;;;;;5.27;74.60;99259.66;89427;1279;99134;-71
2022/02/18 07:37:05;;;;;;;9.80;2.30;;;;;;;5.28;74.70;99255.46;89353;1281;88014;-69
2022/02/18 07:39:12;;;;;;;7.90;1.80;;;;;;;5.31;74.60;99257.75;89292;1281;93264;-57
2022/02/18 07:41:20;;;;;;;9.10;2.30;;;;;;;5.37;74.61;99263.07;89411;1279;80978;-57
2022/02/18 07:43:26;;;;;;;8.50;2.20;;;;;;;5.44;74.54;99266.58;89394;1279;82761;-70
2022/02/18 07:45:36;;;;;;;5.50;1.60;;;;;;;5.48;74.38;99266.60;89313;1281;98495;-68
2022/02/18 07:47:42;;;;;;;11.10;1.90;;;;;;;5.54;74.16;99269.64;89400;1280;88988;-57
2022/02/18 07:49:51;;;;;;;6.70;1.80;;;;;;;5.60;74.08;99271.59;89310;1280;93599;-57
2022/02/18 07:52:04;;;;;;;8.00;1.70;;;;;;;5.66;73.82;99269.58;89380;1279;77360;-57
2022/02/18 07:54:10;;;;;;;7.10;1.80;;;;;;;5.68;73.95;99275.45;89326;1281;82263;-56
2022/02/18 07:56:21;;;;;;;11.70;2.00;;;;;;;5.74;73.62;99281.67;89338;1279;97428;-59
2022/02/18 07:58:29;;;;;;;8.20;1.80;;;;;;;5.80;73.68;99286.29;89408;1280;89482;-68
2022/02/18 08:00:38;;;;;;;7.60;1.60;;;;;;;5.79;73.43;99286.94;89333;1281;95863;-70
2022/02/18 08:02:44;;;;;;;8.00;2.30;;;;;;;5.70;72.97;99293.38;89418;1280;77889;-58
2022/02/18 08:05:04;;;;;;;8.40;2.40;;;;;;;5.69;73.06;99290.16;89400;1279;82101;-57
2022/02/18 08:07:15;;;;;;;9.70;1.80;;;;;;;5.71;73.04;99295.06;89342;1281;99687;-58
2022/02/18 08:09:29;;;;;;;8.50;1.90;;;;;;;5.71;72.80;99300.79;89360;1281;86356;-57
2022/02/18 08:11:39;;;;;;;7.40;1.60;;;;;;;5.69;72.67;99297.05;89376;1279;92985;-58
2022/02/18 08:13:49;;;;;;;7.50;1.90;;;;;;;5.70;72.60;99298.60;89397;1281;80574;-57
2022/02/18 08:16:00;;;;;;;8.80;2.10;;;;;;;5.75;72.66;99302.94;89360;1281;82414;-58
2022/02/18 08:18:09;;;;;;;10.00;2.20;;;;;;;5.83;72.83;99308.16;89401;1279;99049;-55
2022/02/18 08:20:17;;;;;;;5.70;1.50;;;;;;;5.90;72.75;99312.19;89415;1279;89348;-59
2022/02/18 08:22:27;;;;;;;8.70;2.60;;;;;;;5.92;72.46;99314.61;89333;1280;95726;-58
2022/02/18 08:24:41;;;;;;;9.30;2.20;;;;;;;5.93;72.35;99315.11;89418;1281;78045;-58
2022/02/18 08:26:54;;;;;;;9.60;1.90;;;;;;;5.97;72.45;99320.48;89440;1279;80896;-58
2022/02/18 08:29:03;;;;;;;9.20;2.30;;;;;;;5.94;72.14;99315.08;89414;1279;99719;-57
2022/02/18 08:31:14;;;;;;;8.50;2.70;;;;;;;5.96;71.98;99321.90;89437;1280;87960;-56
2022/02/18 08:33:24;;;;;;;9.90;2.20;;;;;;;5.93;71.84;99325.95;89395;1280;92591;-70
2022/02/18 08:35:29;;;;;;;9.60;2.50;;;;;;;5.94;71.75;99332.41;89409;1280;76536;-71
2022/02/18 08:37:37;;;;;;;9.60;2.10;;;;;;;5.96;71.87;99332.95;89392;1279;80007;-69
2022/02/18 08:39:46;;;;;;;9.60;2.60;;;;;;;5.99;71.76;99332.19;89414;1279;99510;-70
2022/02/18 08:41:55;;;;;;;8.60;2.30;;;;;;;6.03;71.78;99335.83;89416;1279;88054;-70
2022/02/18 08:44:01;;;;;;;11.40;2.40;;;;;;;6.01;71.81;99331.05;89415;1279;93233;-71
2022/02/18 08:46:07;;;;;;;11.50;2.70;;;;;;;5.98;71.80;99338.57;89302;1280;77294;-71
2022/02/18 08:48:13;;;;;;;7.60;3.20;;;;;;;5.98;71.52;99345.77;89428;1279;81272;-71
2022/02/18 08:50:19;;;;;;;7.70;2.00;;;;;;;5.97;71.46;99344.97;89405;1278;99366;-71
2022/02/18 08:52:26;;;;;;;8.00;1.80;;;;;;;5.96;71.54;99352.25;89430;1279;89213;-69
2022/02/18 08:54:35;;;;;;;9.10;2.80;;;;;;;5.97;71.47;99355.73;89413;1279;93720;-70
2022/02/18 08:56:41;;;;;;;7.60;2.50;;;;;;;5.99;71.34;99361.00;89416;1279;77637;-69
2022/02/18 08:58:50;;;;;;;8.60;2.10;;;;;;;6.03;71.42;99372.52;89397;1279;81473;-61
2022/02/18 09:00:55;;;;;;;7.30;2.20;;;;;;;6.09;71.48;99379.09;89403;1279;96867;-57
2022/02/18 09:03:07;;;;;;;10.60;2.70;;;;;;;6.15;71.29;99379.34;89419;1279;88544;-58
2022/02/18 09:05:13;;;;;;;11.50;2.20;;;;;;;6.15;71.20;99370.71;89387;1279;92617;-58
2022/02/18 09:07:23;;;;;;;8.60;2.10;;;;;;;6.21;71.06;99375.07;89412;1279;77651;-58
2022/02/18 09:09:29;;;;;;;7.50;1.80;;;;;;;6.27;71.16;99373.42;89421;1279;82854;-58
2022/02/18 09:11:35;;;;;;;9.40;2.50;;;;;;;6.28;70.05;99373.81;89400;1279;100048;-57
2022/02/18 09:13:41;;;;;;;13.60;2.50;;;;;;;6.26;70.23;99382.44;89417;1279;87852;-72
2022/02/18 09:15:53;;;;;;;9.90;2.40;;;;;;;6.26;70.46;99389.42;89404;1279;94417;-56
2022/02/18 09:18:01;;;;;;;9.30;2.30;;;;;;;6.31;70.38;99392.09;89397;1279;77337;-70
2022/02/18 09:20:10;;;;;;;6.70;2.80;;;;;;;6.29;70.25;99398.08;89223;1281;81989;-70
2022/02/18 09:22:15;;;;;;;7.50;2.20;;;;;;;6.28;70.08;99399.60;89426;1279;98896;-70
2022/02/18 09:24:32;;;;;;;12.40;2.70;;;;;;;6.29;70.27;99400.17;89334;1279;88310;-74
2022/02/18 09:26:39;;;;;;;8.50;2.10;;;;;;;6.33;70.28;99406.10;89331;1279;95395;-75
2022/02/18 09:28:48;;;;;;;10.10;2.30;;;;;;;6.32;70.13;99411.11;89368;1279;79573;-70
2022/02/18 09:30:58;;;;;;;10.60;3.00;;;;;;;6.27;70.09;99407.34;89408;1279;82495;-70
2022/02/18 09:33:05;;;;;;;8.50;2.30;;;;;;;6.26;70.12;99411.11;89394;1279;98377;-71
2022/02/18 09:35:13;;;;;;;7.90;2.30;;;;;;;6.29;70.00;99418.98;89384;1278;89875;-71
2022/02/18 09:37:23;;;;;;;8.70;2.60;;;;;;;6.31;69.94;99417.95;89367;1279;95097;-58
2022/02/18 09:39:33;;;;;;;8.90;2.40;;;;;;;6.31;69.98;99416.52;89396;1279;79657;-58
2022/02/18 09:41:45;;;;;;;8.60;2.60;;;;;;;6.30;69.96;99422.93;89348;1281;83368;-71
2022/02/18 09:43:54;;;;;;;10.40;3.00;;;;;;;6.31;69.78;99428.23;89361;1279;99545;-58
2022/02/18 09:46:02;;;;;;;12.80;3.00;;;;;;;6.27;69.68;99422.80;89402;1279;89302;-57
2022/02/18 09:48:14;;;;;;;8.90;2.50;;;;;;;6.23;69.56;99434.18;89329;1278;94249;-70
2022/02/18 09:50:22;;;;;;;9.70;2.60;;;;;;;6.24;69.51;99442.59;89392;1279;77714;-71
2022/02/18 09:52:28;;;;;;;10.60;2.70;;;;;;;6.26;69.47;99440.70;89368;1279;82824;-56
2022/02/18 09:54:37;;;;;;;11.00;3.60;;;;;;;6.28;69.79;99446.60;89338;1279;99676;-59
2022/02/18 09:56:45;;;;;;;10.40;2.90;;;;;;;6.31;69.75;99438.60;89412;1279;88405;-57
2022/02/18 09:58:52;;;;;;;8.80;2.60;;;;;;;6.31;69.61;99444.98;89340;1279;96007;-55
2022/02/18 10:00:57;;;;;;;7.40;3.50;;;;;;;6.32;69.56;99447.39;89286;1279;78129;-57
2022/02/18 10:03:03;;;;;;;7.20;2.60;;;;;;;6.36;69.39;99443.33;89414;1279;80568;-57
2022/02/18 10:05:10;;;;;;;12.60;3.70;;;;;;;6.44;69.55;99446.65;89355;1279;100011;-57
2022/02/18 10:07:15;;;;;;;8.40;2.50;;;;;;;6.49;69.45;99446.70;89369;1279;87270;-72
2022/02/18 10:09:40;;;;;;;17.40;3.50;;;;;;;6.47;69.17;99448.30;89374;1279;95536;-71